Terminal Aerodrome Forecast
Issued by NWS

Home | Current Version | Previous Version | Graphics & Text | Print | Product List | Glossary On
Versions: 1 2 3 4 5 6 7 8 9 10 11 12
000
FTUS42 KMHX 220500 RRA
TAFPGV
TAF
KPGV 220547Z 2206/2306 00000KT 2SM BR VV007
     FM221100 00000KT P6SM BKN150
     FM221400 24008KT P6SM BKN150
     FM222000 25010KT P6SM VCSH BKN080
     FM230200 28004KT P6SM SKC
      AMD LTD TO CLD VIS AND WIND=

USA.gov is the U.S. government's official web portal to all federal, state and local government web resources and services.